Latest Weather Observations for Cooma Airport

IDN60801

Issued at 9:32 pm EST Monday 25 September 2017 (issued every 30 minutes, with the page automatically refreshed every 10 minutes)

About weather observations | Map of weather stations | Latest weather observations for NSW | Other Formats
Station Details ID: 070217 Name: COOMA AIRPORT AWS Lat: -36.29 Lon: 148.97 Height: 930.0 m
Data from the previous 72 hours. | See also: Recent months at Cooma Airport
Date/Time
EST
Temp
°C
App
Temp
°C
Dew
Point
°C
Rel
Hum
%
Delta-T
°C
Wind Press
QNH
hPa
Press
MSL
hPa
Rain since
9am
mm
Dir  Spd
km/h
Gust
km/h
Spd
kts
Gust
kts
25/09:30pm 5.8 1.5 1.3 73 1.9 WNW 13 17 7 9 1012.5 1012.4 0.0
25/09:00pm 5.8 0.4 1.3 73 1.9 WNW 19 24 10 13 1012.3 1012.1 0.0
25/08:30pm 6.9 1.4 0.8 65 2.6 W 19 26 10 14 1012.0 1011.8 0.0
25/08:00pm 6.8 3.7 1.3 68 2.3 NW 7 30 4 16 1011.6 1011.5 0.0
25/07:30pm 6.1 2.2 1.2 71 2.1 WSW 11 17 6 9 1011.2 1011.0 0.0
25/07:00pm 7.6 2.6 1.5 65 2.6 W 17 24 9 13 1011.0 1010.8 0.0
25/06:30pm 7.6 2.0 1.2 64 2.7 W 20 32 11 17 1010.3 1010.1 0.0
25/06:14pm 8.0 0.0 0.7 60 3.1 W 32 50 17 27 1010.0 1009.8 0.0
25/06:00pm 8.9 0.7 0.1 54 3.7 W 33 48 18 26 1009.9 1009.7 0.0
25/05:53pm 9.1 1.7 -0.5 51 4.0 WNW 28 48 15 26 1009.7 1009.5 0.0
25/05:30pm 9.1 1.8 0.0 53 3.8 WNW 28 39 15 21 1008.9 1008.7 0.0
25/05:00pm 10.2 2.2 0.3 50 4.3 WNW 32 44 17 24 1008.8 1008.6 0.0
25/04:38pm 10.5 2.2 -0.3 47 4.6 WNW 33 52 18 28 1008.3 1008.1 0.0
25/04:30pm 11.1 2.2 -2.0 40 5.4 WNW 35 52 19 28 1008.1 1007.9 0.0
25/04:01pm 12.2 2.8 -2.8 35 6.1 W 37 57 20 31 1007.7 1007.4 0.0
25/04:00pm 12.4 3.5 -1.9 37 6.0 W 35 52 19 28 1007.7 1007.4 0.0
25/03:30pm 11.9 1.4 -2.3 37 5.8 W 43 63 23 34 1007.5 1007.2 0.0
25/03:07pm 12.1 1.4 -2.9 35 6.1 W 44 65 24 35 1007.4 1007.1 0.0
25/03:00pm 12.5 2.6 -1.1 39 5.8 W 41 54 22 29 1007.1 1006.9 0.0
25/02:31pm 12.4 1.7 -3.0 34 6.3 W 44 65 24 35 1007.0 1006.8 0.0
25/02:30pm 12.9 2.5 -1.8 36 6.2 W 43 59 23 32 1006.9 1006.7 0.0
25/02:04pm 12.2 2.6 -1.7 38 5.8 WNW 39 57 21 31 1006.8 1006.5 0.0
25/02:00pm 12.8 3.3 -0.4 40 5.7 WNW 39 56 21 30 1006.7 1006.4 0.0
25/01:30pm 12.6 2.2 -0.6 40 5.7 WNW 44 65 24 35 1006.8 1006.5 0.0
25/01:00pm 13.6 3.8 -0.4 38 6.1 W 41 59 22 32 1006.6 1006.3 0.0
25/12:30pm 12.9 3.4 -0.4 40 5.8 W 39 57 21 31 1006.8 1006.5 0.0
25/12:01pm 13.2 4.6 -0.1 40 5.8 W 35 54 19 29 1006.9 1006.7 0.0
25/12:00pm 13.1 4.1 0.2 41 5.7 W 37 54 20 29 1006.9 1006.7 0.0
25/11:35am 13.2 5.1 -0.4 39 5.9 WNW 32 50 17 27 1006.9 1006.7 0.0
25/11:30am 13.9 5.7 0.5 40 6.0 WNW 33 50 18 27 1006.9 1006.7 0.0
25/11:07am 12.6 3.8 -1.0 39 5.8 WNW 35 54 19 29 1007.0 1006.8 0.0
25/11:00am 12.3 2.4 -1.2 39 5.7 W 41 54 22 29 1007.1 1006.9 0.0
25/10:32am 12.3 3.2 -0.9 40 5.6 W 37 56 20 30 1006.9 1006.7 0.0
25/10:30am 12.5 3.0 -0.7 40 5.7 W 39 56 21 30 1006.9 1006.7 0.0
25/10:02am 12.5 3.0 -0.4 41 5.6 W 39 57 21 31 1006.9 1006.7 0.0
25/10:00am 12.3 2.4 -0.9 40 5.7 W 41 57 22 31 1006.9 1006.7 0.0
25/09:31am 12.5 4.0 -2.1 36 6.1 W 33 56 18 30 1006.7 1006.4 0.0
25/09:30am 12.8 4.6 -0.8 39 5.8 W 32 46 17 25 1006.7 1006.4 0.0
25/09:18am 11.9 4.3 -1.9 38 5.7 W 28 48 15 26 1006.7 1006.4 0.0
25/09:00am 12.1 5.2 0.2 44 5.2 W 26 41 14 22 1006.6 1006.3 0.0
25/08:30am 11.1 4.9 -0.4 45 4.9 W 22 33 12 18 1006.4 1006.1 0.0
25/08:00am 10.3 5.9 0.6 51 4.2 WSW 13 22 7 12 1006.0 1005.8 0.0
25/07:30am 9.2 6.1 0.4 54 3.8 SSW 6 9 3 5 1005.7 1005.4 0.0
25/07:00am 8.2 4.9 0.4 58 3.3 SSW 7 13 4 7 1005.5 1005.2 0.0
25/06:30am 6.9 2.9 0.6 64 2.6 SW 11 15 6 8 1005.2 1004.9 0.0
25/06:00am 6.9 1.7 0.4 63 2.7 WSW 17 30 9 16 1005.2 1004.9 0.0
25/05:30am 7.1 0.5 -0.1 60 3.0 WSW 24 39 13 21 1004.6 1004.3 0.0
25/05:05am 7.5 0.2 -0.2 58 3.2 W 28 46 15 25 1004.1 1003.7 0.0
25/05:00am 7.4 0.1 -0.3 58 3.2 W 28 43 15 23 1004.2 1003.9 0.0
25/04:36am 7.6 -0.5 -0.6 56 3.4 W 32 52 17 28 1004.0 1003.6 0.0
25/04:30am 7.6 -0.8 -0.8 55 3.4 WNW 33 50 18 27 1003.8 1003.5 0.0
25/04:00am 7.8 -1.3 -0.9 54 3.6 WNW 37 56 20 30 1003.7 1003.4 0.0
25/03:41am 8.2 -0.5 -0.8 53 3.7 WNW 35 57 19 31 1003.7 1003.4 0.0
25/03:30am 8.2 -1.3 -0.8 53 3.7 WNW 39 52 21 28 1003.7 1003.4 0.0
25/03:00am 8.5 0.4 -0.3 54 3.7 WNW 32 50 17 27 1004.0 1003.6 0.0
25/02:39am 8.4 0.7 -0.4 54 3.7 W 30 50 16 27 1004.3 1004.0 0.0
25/02:30am 8.8 1.5 -0.2 53 3.8 W 28 44 15 24 1004.4 1004.1 0.0
25/02:00am 8.9 1.9 -0.4 52 3.9 W 26 39 14 21 1004.5 1004.2 0.0
25/01:30am 8.7 2.5 -0.6 52 3.9 W 22 32 12 17 1004.8 1004.5 0.0
25/01:00am 8.5 2.8 -0.8 52 3.9 W 19 35 10 19 1004.9 1004.6 0.0
25/12:30am 9.1 2.5 -0.5 51 4.0 W 24 33 13 18 1004.9 1004.6 0.0
25/12:00am 8.8 2.9 -0.5 52 3.9 W 20 32 11 17 1004.9 1004.6 0.0
 
Date/Time
EST
Temp
°C
App
Temp
°C
Dew
Point
°C
Rel
Hum
%
Delta-T
°C
Wind Press
QNH
hPa
Press
MSL
hPa
Rain since
9am
mm
Dir  Spd
km/h
Gust
km/h
Spd
kts
Gust
kts
24/11:30pm 8.7 2.9 -0.3 53 3.8 WNW 20 32 11 17 1005.1 1004.8 0.0
24/11:00pm 8.9 3.1 -0.4 52 3.9 WNW 20 32 11 17 1005.1 1004.8 0.0
24/10:30pm 9.2 3.0 -0.1 52 3.9 WNW 22 30 12 16 1005.1 1004.8 0.0
24/10:00pm 9.6 3.8 0.0 51 4.1 WNW 20 32 11 17 1005.1 1004.8 0.0
24/09:30pm 9.5 3.9 -0.1 51 4.1 WNW 19 24 10 13 1005.1 1004.8 0.0
24/09:00pm 9.4 4.1 -0.5 50 4.2 WNW 17 22 9 12 1004.9 1004.6 0.0
24/08:30pm 10.0 4.1 -1.1 46 4.6 WNW 20 32 11 17 1004.7 1004.4 0.0
24/08:00pm 10.9 4.9 -1.5 42 5.2 WNW 20 35 11 19 1004.2 1003.9 0.0
24/07:30pm 11.4 5.0 -1.7 40 5.4 WNW 22 35 12 19 1003.7 1003.4 0.0
24/07:00pm 11.6 4.9 -1.2 41 5.4 WNW 24 35 13 19 1003.4 1003.1 0.0
24/06:30pm 12.1 4.6 -1.1 40 5.6 WNW 28 37 15 20 1003.1 1002.7 0.0
24/06:00pm 12.5 5.9 -0.4 41 5.6 WNW 24 41 13 22 1002.9 1002.5 0.0
24/05:30pm 13.0 6.0 -0.3 40 5.8 WNW 26 44 14 24 1002.5 1002.2 0.0
24/05:13pm 13.3 6.0 0.0 40 5.8 WNW 28 46 15 25 1002.4 1002.1 0.0
24/05:00pm 13.7 6.4 0.0 39 6.1 WNW 28 44 15 24 1002.3 1002.0 0.0
24/04:42pm 13.8 5.6 0.1 39 6.1 WNW 33 52 18 28 1002.2 1001.8 0.0
24/04:30pm 13.9 5.2 -0.2 38 6.2 WNW 35 50 19 27 1002.2 1001.8 0.0
24/04:00pm 14.2 5.4 -1.0 35 6.6 WNW 35 54 19 29 1002.0 1001.6 0.0
24/03:30pm 14.6 5.5 -0.7 35 6.7 WNW 37 57 20 31 1002.0 1001.6 0.0
24/03:00pm 14.6 5.9 -0.7 35 6.7 WNW 35 57 19 31 1002.0 1001.6 0.0
24/02:30pm 14.6 5.9 -0.7 35 6.7 WNW 35 63 19 34 1002.2 1001.8 0.0
24/02:03pm 14.6 6.6 0.5 38 6.3 WNW 32 50 17 27 1002.2 1001.8 0.0
24/02:00pm 14.0 5.7 -0.4 37 6.4 WNW 33 50 18 27 1002.2 1001.8 0.0
24/01:30pm 14.2 5.2 0.1 38 6.3 WNW 37 56 20 30 1002.4 1002.1 0.0
24/01:00pm 13.9 4.5 -0.2 38 6.2 W 39 70 21 38 1002.6 1002.3 0.0
24/12:30pm 14.1 3.2 -1.1 35 6.6 WNW 46 69 25 37 1002.8 1002.4 0.0
24/12:00pm 14.1 2.3 -2.3 32 6.9 W 50 74 27 40 1002.8 1002.4 0.0
24/11:42am 14.4 2.6 -2.5 31 7.1 WNW 50 80 27 43 1002.9 1002.5 0.0
24/11:30am 14.5 4.0 -2.4 31 7.1 WNW 43 61 23 33 1002.8 1002.4 0.0
24/11:00am 14.3 4.7 -1.3 34 6.8 WNW 39 63 21 34 1003.0 1002.6 0.0
24/10:42am 14.6 6.3 -1.5 33 6.9 WNW 32 52 17 28 1003.2 1002.9 0.0
24/10:39am 14.3 6.0 -1.7 33 6.8 NW 32 50 17 27 1003.2 1002.9 0.0
24/10:37am 14.5 6.2 -1.6 33 6.9 NW 32 50 17 27 1003.1 1002.7 0.0
24/10:34am 14.2 6.1 -0.3 37 6.4 NW 32 50 17 27 1003.3 1003.0 0.0
24/10:30am 14.2 5.8 -1.0 35 6.6 NW 33 50 18 27 1003.3 1003.0 0.0
24/10:06am 13.9 5.7 -1.3 35 6.5 NW 32 50 17 27 1003.6 1003.3 0.0
24/10:00am 13.4 4.9 -2.1 34 6.5 NW 33 50 18 27 1003.7 1003.4 0.0
24/09:38am 13.1 5.4 -3.2 32 6.7 WNW 28 46 15 25 1004.0 1003.6 0.0
24/09:30am 13.0 5.2 -1.0 38 6.0 NW 30 44 16 24 1004.1 1003.7 0.0
24/09:00am 12.6 3.7 -2.1 36 6.2 WNW 35 54 19 29 1004.3 1004.0 0.0
24/08:46am 12.6 4.1 -2.1 36 6.1 WNW 33 52 18 28 1004.1 1003.7 0.0
24/08:30am 12.6 2.4 -3.2 33 6.4 WNW 41 56 22 30 1003.7 1003.4 0.0
24/08:04am 12.2 3.6 -2.8 35 6.1 WNW 33 56 18 30 1003.4 1003.1 0.0
24/08:00am 12.0 3.7 -1.9 38 5.8 WNW 32 46 17 25 1003.2 1002.9 0.0
24/07:40am 11.9 3.3 -2.7 36 6.0 WNW 33 52 18 28 1002.9 1002.5 0.0
24/07:30am 11.8 3.4 -2.8 36 5.9 WNW 32 48 17 26 1002.8 1002.4 0.0
24/07:16am 11.2 3.3 -1.9 40 5.4 WNW 30 48 16 26 1002.8 1002.4 0.0
24/07:00am 11.1 4.0 -1.3 42 5.2 WNW 26 39 14 21 1002.6 1002.3 0.0
24/06:31am 10.9 2.9 -2.5 39 5.4 WNW 30 48 16 26 1002.5 1002.2 0.0
24/06:30am 10.8 2.9 -1.9 41 5.2 WNW 30 41 16 22 1002.4 1002.1 0.0
24/06:00am 10.7 2.7 -2.3 40 5.3 WNW 30 43 16 23 1002.4 1002.1 0.0
24/05:30am 11.2 3.6 -2.2 39 5.5 WNW 28 41 15 22 1001.9 1001.5 0.0
24/05:00am 11.7 3.2 -2.9 36 6.0 WNW 32 50 17 27 1001.9 1001.5 0.0
24/04:36am 12.3 4.0 -2.0 37 6.0 WNW 32 50 17 27 1001.9 1001.5 0.0
24/04:30am 12.2 3.9 -2.0 37 5.9 WNW 32 43 17 23 1001.8 1001.4 0.0
24/04:00am 13.2 5.4 -4.0 30 7.0 WNW 28 41 15 22 1001.4 1001.1 0.0
24/03:30am 13.8 6.3 -4.8 27 7.4 WNW 26 35 14 19 1001.1 1000.7 0.0
24/03:00am 14.2 7.1 -1.0 35 6.6 WNW 26 37 14 20 1001.1 1000.7 0.0
24/02:30am 13.4 8.9 4.0 53 4.5 WNW 17 24 9 13 1000.9 1000.5 0.0
24/02:00am 14.7 9.7 4.7 51 4.9 WNW 20 30 11 16 1001.2 1000.8 0.0
24/01:30am 15.8 9.3 4.8 48 5.5 WNW 28 44 15 24 1001.2 1000.8 0.0
24/01:00am 17.2 11.4 4.5 43 6.4 WNW 24 39 13 21 1001.1 1000.7 0.0
24/12:30am 17.4 12.7 3.3 39 6.9 NW 17 20 9 11 1001.1 1000.7 0.0
24/12:00am 15.0 10.8 1.9 41 6.1 NNW 13 17 7 9 1001.0 1000.6 0.0
 
Date/Time
EST
Temp
°C
App
Temp
°C
Dew
Point
°C
Rel
Hum
%
Delta-T
°C
Wind Press
QNH
hPa
Press
MSL
hPa
Rain since
9am
mm
Dir  Spd
km/h
Gust
km/h
Spd
kts
Gust
kts
23/11:30pm 17.1 12.5 1.5 35 7.3 NW 15 19 8 10 1001.3 1001.0 0.0
23/11:00pm 17.8 13.2 1.7 34 7.7 NNW 15 19 8 10 1001.1 1000.7 0.0
23/10:30pm 18.4 14.9 1.0 31 8.1 NW 9 13 5 7 1001.3 1001.0 0.0
23/10:00pm 19.3 15.3 0.8 29 8.7 NW 11 17 6 9 1000.9 1000.5 0.0
23/09:30pm 19.9 15.2 0.9 28 9.0 NNW 15 20 8 11 1001.0 1000.6 0.0
23/09:00pm 21.3 14.7 -0.1 24 10.1 NNW 24 33 13 18 1001.0 1000.6 0.0
23/08:33pm 22.0 13.9 -0.1 23 10.4 NNW 32 50 17 27 1001.0 1000.6 0.0
23/08:30pm 21.9 14.6 -0.1 23 10.4 NNW 28 39 15 21 1001.1 1000.7 0.0
23/08:00pm 20.5 15.0 0.4 26 9.5 NNW 19 28 10 15 1002.3 1002.0 0.0
23/07:30pm 21.6 15.9 -0.4 23 10.3 NNW 19 28 10 15 1002.0 1001.6 0.0
23/07:00pm 21.4 15.8 0.0 24 10.1 NNW 19 26 10 14 1002.5 1002.2 0.0
23/06:30pm 21.8 15.6 -0.2 23 10.3 NNW 22 32 12 17 1001.3 1001.0 0.0
23/06:00pm 22.3 15.8 0.2 23 10.6 NNW 24 32 13 17 1001.1 1000.7 0.0
23/05:30pm 22.6 16.5 0.4 23 10.6 N 22 32 12 17 1001.0 1000.6 0.0
23/05:00pm 23.5 17.4 0.6 22 11.1 N 22 32 12 17 1001.1 1000.7 0.0
23/04:30pm 23.6 15.8 -0.6 20 11.4 NNW 30 44 16 24 1001.2 1000.8 0.0
23/04:06pm 24.2 16.0 -0.9 19 11.8 NW 32 50 17 27 1000.9 1000.5 0.0
23/04:00pm 25.2 16.5 -0.8 18 12.5 NW 35 50 19 27 1000.9 1000.5 0.0
23/03:53pm 25.3 17.1 -0.7 18 12.4 NW 32 50 17 27 1001.0 1000.6 0.0
23/03:30pm 25.6 18.6 -0.5 18 12.5 NW 26 37 14 20 1001.4 1001.1 0.0
23/03:00pm 25.7 17.3 -1.2 17 12.8 NNW 33 52 18 28 1002.1 1001.7 0.0
23/02:30pm 26.3 17.1 -1.5 16 13.2 NW 37 57 20 31 1002.2 1001.8 0.0
23/02:05pm 27.4 19.6 -0.6 16 13.6 NNW 30 54 16 29 1002.3 1002.0 0.0
23/02:00pm 27.5 19.5 0.3 17 13.5 NNW 32 43 17 23 1002.1 1001.7 0.0
23/01:31pm 27.0 17.9 -0.9 16 13.4 NNW 37 56 20 30 1002.2 1001.8 0.0
23/01:30pm 27.2 17.8 0.1 17 13.3 NNW 39 56 21 30 1002.3 1002.0 0.0
23/01:15pm 27.0 18.9 -0.1 17 13.2 NNW 32 50 17 27 1002.5 1002.2 0.0
23/01:00pm 26.7 18.4 -0.3 17 13.2 NNW 33 46 18 25 1003.0 1002.6 0.0
23/12:30pm 26.2 17.1 -0.8 17 13.0 NNW 37 56 20 30 1003.7 1003.4 0.0
23/12:11pm 26.6 18.8 1.8 20 12.5 N 32 50 17 27 1004.0 1003.6 0.0
23/12:00pm 25.9 17.9 0.5 19 12.5 NNW 32 46 17 25 1004.0 1003.6 0.0
23/11:32am 24.3 15.6 -0.8 19 11.9 NW 35 54 19 29 1005.5 1005.2 0.0
23/11:30am 23.9 15.1 -1.1 19 11.7 NW 35 52 19 28 1005.6 1005.3 0.0
23/11:18am 23.9 15.0 -1.8 18 11.9 NW 35 56 19 30 1006.8 1006.5 0.0
23/11:00am 24.0 15.6 -1.0 19 11.8 NW 33 48 18 26 1006.9 1006.7 0.0
23/10:54am 23.9 16.3 -1.8 18 11.9 NNW 28 48 15 26 1006.8 1006.5 0.0
23/10:30am 24.8 17.6 1.0 21 11.7 N 28 43 15 23 1007.0 1006.8 0.0
23/10:00am 22.3 16.5 0.2 23 10.5 NE 20 26 11 14 1007.6 1007.3 0.0
23/09:30am 20.3 14.5 0.2 26 9.4 NE 20 24 11 13 1007.9 1007.7 0.0
23/09:00am 16.9 11.1 -0.3 31 7.8 NNE 20 26 11 14 1009.1 1008.9 0.0
23/08:30am 17.6 13.2 -2.1 26 8.6 NNE 11 15 6 8 1010.2 1010.0 0.0
23/08:00am 17.8 12.8 -1.4 27 8.5 NE 15 19 8 10 1009.8 1009.6 0.0
23/07:30am 17.0 11.2 -4.3 23 8.8 N 17 20 9 11 1009.8 1009.6 0.0
23/07:16am 14.3 11.0 0.2 38 6.3 NNE 7 15 4 8 1009.4 1009.2 0.0
23/07:00am 9.3 6.0 0.0 52 3.9 NNE 7 11 4 6 1009.4 1009.2 0.0
23/06:30am 7.6 4.0 -2.4 49 3.9 NNE 7 11 4 6 1009.4 1009.2 0.0
23/06:00am 6.6 2.1 -3.6 48 3.9 NE 11 15 6 8 1009.5 1009.3 0.0
23/05:30am 9.4 4.1 -3.5 40 5.0 N 15 15 8 8 1009.9 1009.7 0.0
23/05:00am 10.2 4.8 -4.2 36 5.6 N 15 15 8 8 1009.9 1009.7 0.0
23/04:30am 12.0 6.2 -4.6 31 6.5 NNE 17 26 9 14 1010.2 1010.0 0.0
23/04:00am 12.6 6.7 -5.9 27 7.1 N 17 24 9 13 1010.3 1010.1 0.0
23/03:30am 16.6 9.3 -6.4 20 9.1 NNW 24 35 13 19 1010.4 1010.2 0.0
23/03:00am 17.6 10.6 -7.0 18 9.7 NNW 22 32 12 17 1010.6 1010.5 0.0
23/02:30am 16.6 10.1 -5.8 21 9.0 NW 20 28 11 15 1011.2 1011.0 0.0
23/02:00am 16.8 9.2 -5.6 21 9.0 NW 26 35 14 19 1011.4 1011.2 0.0
23/01:30am 16.5 10.3 -5.3 22 8.8 NNW 19 26 10 14 1011.6 1011.5 0.0
23/01:00am 16.3 9.2 -4.8 23 8.6 NW 24 32 13 17 1012.0 1011.8 0.0
23/12:30am 16.2 7.9 -4.9 23 8.6 NNW 30 37 16 20 1012.0 1011.8 0.0
23/12:00am 14.5 8.3 -3.3 29 7.4 N 20 30 11 16 1012.1 1011.9 0.0
 
Date/Time
EST
Temp
°C
App
Temp
°C
Dew
Point
°C
Rel
Hum
%
Delta-T
°C
Wind Press
QNH
hPa
Press
MSL
hPa
Rain since
9am
mm
Dir  Spd
km/h
Gust
km/h
Spd
kts
Gust
kts
22/11:30pm 10.9 5.7 -2.8 38 5.5 N 15 20 8 11 1012.2 1012.0 0.0
22/11:00pm 11.9 7.8 -3.1 35 6.1 N 9 13 5 7 1012.3 1012.1 0.0
22/10:30pm 13.0 6.1 -2.9 33 6.5 NNE 24 30 13 16 1012.7 1012.6 0.0
22/10:00pm 13.5 6.6 -2.4 33 6.6 NNE 24 30 13 16 1012.7 1012.6 0.0

Other Formats:

Comma delimited format used in spreadsheet applications
http://www.bom.gov.au/fwo/IDN60801/IDN60801.94921.axf

JavaScript Object Notation format (JSON) in row-major order
http://www.bom.gov.au/fwo/IDN60801/IDN60801.94921.json